In Rescue
 
Open Full Screen Window  High Contrast Mode
Wind Gusting 00 knots
08
June 22, 2024 10:18 PM EDT
Weather Information
Wind Direction
  210 °
Wind Speed
  08 kt (9 mph)
Wind Gust
  00 kt (0 mph)
Altimeter
29.79 in
Visibility
10 SM
Temperature
27° C
81° F
Dewpoint
11° C
52° F
Humidity
37%
Sky Condition
Clear
VFR

METAR KJYM 230218Z AUTO 21008KT 10SM CLR 27/11 A2979 RMK AO2 T02720110

FAA Disclaimer: The data displayed is for advisory purposes only and is not to be used for flight planning or operations.